createdAt,value
2018-09-05T00:01:56.459Z,7.30
2018-09-05T00:04:24.851Z,7.83
2018-09-05T00:06:52.948Z,6.50
2018-09-05T00:09:21.032Z,8.23
2018-09-05T00:11:49.118Z,7.10
2018-09-05T00:14:17.234Z,6.83
2018-09-05T00:16:45.309Z,8.83
2018-09-05T00:19:13.395Z,8.27
2018-09-05T00:21:41.511Z,8.83
2018-09-05T00:24:09.619Z,10.10
2018-09-05T00:26:37.731Z,7.37
2018-09-05T00:29:05.840Z,7.27
2018-09-05T00:31:33.955Z,6.60
2018-09-05T00:34:02.070Z,7.20
2018-09-05T00:36:30.104Z,7.43
2018-09-05T00:38:58.181Z,7.00
2018-09-05T00:41:26.233Z,5.77
2018-09-05T00:43:54.318Z,6.10
2018-09-05T00:46:22.387Z,6.80
2018-09-05T00:48:50.451Z,5.72
2018-09-05T00:51:18.531Z,7.40
2018-09-05T00:53:46.605Z,6.00
2018-09-05T00:56:14.668Z,7.97
2018-09-05T00:58:42.742Z,5.53
2018-09-05T01:01:10.802Z,7.17
2018-09-05T01:03:38.902Z,7.57
2018-09-05T01:06:06.966Z,5.50
2018-09-05T01:08:35.061Z,6.90
2018-09-05T01:11:03.131Z,6.20
2018-09-05T01:13:31.202Z,6.50
2018-09-05T01:15:59.287Z,7.00
2018-09-05T01:18:27.370Z,7.23
2018-09-05T01:20:55.432Z,7.00
2018-09-05T01:23:23.527Z,6.60
2018-09-05T01:25:51.591Z,7.13
2018-09-05T01:28:19.750Z,6.40
2018-09-05T01:30:47.821Z,7.87
2018-09-05T01:33:15.915Z,8.80
2018-09-05T01:35:43.971Z,8.50
2018-09-05T01:38:12.059Z,7.93
2018-09-05T01:40:40.182Z,7.30
2018-09-05T01:43:08.253Z,7.20
2018-09-05T01:45:36.454Z,7.90
2018-09-05T01:48:04.582Z,8.40
2018-09-05T01:50:44.246Z,8.40
2018-09-05T01:53:12.894Z,9.40
2018-09-05T01:55:40.978Z,10.00
2018-09-05T01:58:09.103Z,9.77
2018-09-05T02:00:37.201Z,10.00
2018-09-05T02:03:05.692Z,10.10
2018-09-05T02:05:33.803Z,9.43
2018-09-05T02:08:02.953Z,9.77
2018-09-05T02:10:31.640Z,8.20
2018-09-05T02:12:59.949Z,8.20
2018-09-05T02:15:28.027Z,8.65
2018-09-05T02:17:56.151Z,8.50
2018-09-05T02:20:24.224Z,7.80
2018-09-05T02:22:52.324Z,8.20
2018-09-05T02:25:20.405Z,7.40
2018-09-05T02:27:48.485Z,6.53
2018-09-05T02:30:16.574Z,7.13
2018-09-05T02:32:44.656Z,5.73
2018-09-05T02:35:12.774Z,6.93
2018-09-05T02:37:40.923Z,6.50
2018-09-05T02:40:09.345Z,8.73
2018-09-05T02:42:37.559Z,7.27
2018-09-05T02:45:05.705Z,7.27
2018-09-05T02:47:33.841Z,6.67
2018-09-05T02:50:01.934Z,8.00
2018-09-05T02:52:30.009Z,7.30
2018-09-05T02:54:58.110Z,7.10
2018-09-05T02:57:26.248Z,7.22
2018-09-05T02:59:54.351Z,6.90
2018-09-05T03:02:22.431Z,7.05
2018-09-05T03:04:50.520Z,7.13
2018-09-05T03:07:18.629Z,7.37
2018-09-05T03:09:46.724Z,7.20
2018-09-05T03:12:19.374Z,7.90
2018-09-05T03:14:47.602Z,8.25
2018-09-05T03:17:15.696Z,6.80
2018-09-05T03:19:43.783Z,7.77
2018-09-05T03:22:11.988Z,6.50
2018-09-05T03:24:40.126Z,6.63
2018-09-05T03:27:08.281Z,6.23
2018-09-05T03:29:36.385Z,7.60
2018-09-05T03:32:04.524Z,8.20
2018-09-05T03:34:32.646Z,6.93
2018-09-05T03:37:00.771Z,7.80
2018-09-05T03:39:28.873Z,6.60
2018-09-05T03:41:56.958Z,7.13
2018-09-05T03:44:25.054Z,8.17
2018-09-05T03:46:53.151Z,6.70
2018-09-05T03:49:21.231Z,7.93
2018-09-05T03:51:49.340Z,6.97
2018-09-05T03:54:17.423Z,6.20
2018-09-05T03:56:45.627Z,6.60
2018-09-05T03:59:13.721Z,6.73
2018-09-05T04:01:41.815Z,7.50
2018-09-05T04:04:09.903Z,6.20
2018-09-05T04:06:38.004Z,7.60
2018-09-05T04:09:08.032Z,7.93
2018-09-05T04:11:36.795Z,6.57
2018-09-05T04:14:04.910Z,7.62
2018-09-05T04:16:33.072Z,7.53
2018-09-05T04:19:01.141Z,8.05
2018-09-05T04:21:29.248Z,7.15
2018-09-05T04:23:57.398Z,7.63
2018-09-05T04:26:25.490Z,8.45
2018-09-05T04:28:53.591Z,7.75
2018-09-05T04:31:21.758Z,6.23
2018-09-05T04:33:49.846Z,6.97
2018-09-05T04:36:17.957Z,7.77
2018-09-05T04:38:46.061Z,7.97
2018-09-05T04:41:15.202Z,9.70
2018-09-05T04:43:43.291Z,8.03
2018-09-05T04:46:11.377Z,8.45
2018-09-05T04:48:39.471Z,8.68
2018-09-05T04:51:07.778Z,7.90
2018-09-05T04:53:35.880Z,7.00
2018-09-05T04:56:03.966Z,6.70
2018-09-05T04:58:32.091Z,6.60
2018-09-05T05:01:00.168Z,8.70
2018-09-05T05:03:28.384Z,8.03
2018-09-05T05:05:56.580Z,7.20
2018-09-05T05:08:24.615Z,7.40
2018-09-05T05:10:52.823Z,7.87
2018-09-05T05:13:20.984Z,7.37
2018-09-05T05:15:49.168Z,7.87
2018-09-05T05:18:17.351Z,8.23
2018-09-05T05:20:45.457Z,7.10
2018-09-05T05:23:13.547Z,8.70
2018-09-05T05:25:41.638Z,8.17
2018-09-05T05:28:09.715Z,7.77
2018-09-05T05:30:37.799Z,7.00
2018-09-05T05:33:05.947Z,6.00
2018-09-05T05:35:34.028Z,7.40
2018-09-05T05:38:02.143Z,6.50
2018-09-05T05:40:30.210Z,8.40
2018-09-05T05:42:58.364Z,6.40
2018-09-05T05:45:26.439Z,6.80
2018-09-05T05:47:54.671Z,7.53
2018-09-05T05:50:22.718Z,7.40
2018-09-05T05:52:50.795Z,7.97
2018-09-05T05:55:18.859Z,6.90
2018-09-05T05:57:46.929Z,7.97
2018-09-05T06:00:15.055Z,7.47
2018-09-05T06:02:43.155Z,7.43
2018-09-05T06:05:11.245Z,9.03
2018-09-05T06:07:39.375Z,7.10
2018-09-05T06:10:07.445Z,8.43
2018-09-05T06:12:35.663Z,8.17
2018-09-05T06:15:03.770Z,8.30
2018-09-05T06:17:31.901Z,8.40
2018-09-05T06:19:59.995Z,8.30
2018-09-05T06:22:28.060Z,7.40
2018-09-05T06:24:56.149Z,7.60
2018-09-05T06:27:24.281Z,7.57
2018-09-05T06:29:52.362Z,10.33
2018-09-05T06:32:20.429Z,9.30
2018-09-05T06:34:48.505Z,9.13
2018-09-05T06:37:16.576Z,12.27
2018-09-05T06:39:44.660Z,10.70
2018-09-05T06:42:12.747Z,10.60
2018-09-05T06:44:40.830Z,9.67
2018-09-05T06:47:08.974Z,8.20
2018-09-05T06:49:37.048Z,8.17
2018-09-05T06:52:05.112Z,8.40
2018-09-05T06:54:33.187Z,9.00
2018-09-05T06:57:01.256Z,8.10
2018-09-05T06:59:29.452Z,9.03
2018-09-05T07:01:57.638Z,7.90
2018-09-05T07:04:25.703Z,7.67
2018-09-05T07:06:53.792Z,7.90
2018-09-05T07:09:21.990Z,6.60
2018-09-05T07:11:50.115Z,9.03
2018-09-05T07:14:18.244Z,8.33
2018-09-05T07:16:46.258Z,8.60
2018-09-05T07:19:14.348Z,7.75
2018-09-05T07:21:42.419Z,9.27
2018-09-05T07:24:10.495Z,9.33
2018-09-05T07:26:38.558Z,10.00
2018-09-05T07:29:06.675Z,9.98
2018-09-05T07:31:34.777Z,10.53
2018-09-05T07:34:02.848Z,8.50
2018-09-05T07:36:30.920Z,8.85
2018-09-05T07:38:59.349Z,9.50
2018-09-05T07:41:27.365Z,8.90
2018-09-05T07:43:55.439Z,10.23
2018-09-05T07:46:23.520Z,8.60
2018-09-05T07:48:51.631Z,7.83
2018-09-05T07:51:20.270Z,7.90
2018-09-05T07:53:48.330Z,9.13
2018-09-05T07:56:16.462Z,8.10
2018-09-05T07:58:44.524Z,8.48
2018-09-05T08:01:12.595Z,8.10
2018-09-05T08:03:40.663Z,7.60
2018-09-05T08:06:08.743Z,9.73
2018-09-05T08:08:36.823Z,8.25
2018-09-05T08:11:04.917Z,8.47
2018-09-05T08:13:32.980Z,8.87
2018-09-05T08:16:01.072Z,7.87
2018-09-05T08:18:29.142Z,7.50
2018-09-05T08:20:57.321Z,8.57
2018-09-05T08:23:25.394Z,10.27
2018-09-05T08:25:54.293Z,9.00
2018-09-05T08:28:22.368Z,10.17
2018-09-05T08:30:50.475Z,12.70
2018-09-05T08:33:18.750Z,12.30
2018-09-05T08:35:47.072Z,10.60
2018-09-05T08:38:15.073Z,10.40
2018-09-05T08:40:43.238Z,11.10
2018-09-05T08:43:11.335Z,10.50
2018-09-05T08:45:39.630Z,12.33
2018-09-05T08:48:07.550Z,11.20
2018-09-05T08:50:36.512Z,10.00
2018-09-05T08:53:04.574Z,12.77
2018-09-05T08:55:32.655Z,14.53
2018-09-05T08:58:00.792Z,13.27
2018-09-05T09:00:28.903Z,14.23
2018-09-05T09:02:57.020Z,14.27
2018-09-05T09:05:25.403Z,13.62
2018-09-05T09:07:53.498Z,14.00
2018-09-05T09:10:21.613Z,15.70
2018-09-05T09:12:49.683Z,12.07
2018-09-05T09:15:17.790Z,14.87
2018-09-05T09:17:46.016Z,14.03
2018-09-05T09:20:14.137Z,10.73
2018-09-05T09:22:42.245Z,12.90
2018-09-05T09:25:10.342Z,12.13
2018-09-05T09:27:38.474Z,12.73
2018-09-05T09:30:06.703Z,12.77
2018-09-05T09:32:34.799Z,12.83
2018-09-05T09:35:02.884Z,12.10
2018-09-05T09:37:31.146Z,11.20
2018-09-05T09:39:59.256Z,12.83
2018-09-05T09:42:27.373Z,12.50
2018-09-05T09:44:56.502Z,13.43
2018-09-05T09:47:24.589Z,12.50
2018-09-05T09:49:52.678Z,12.90
2018-09-05T09:52:21.964Z,13.40
2018-09-05T09:54:51.468Z,14.90
2018-09-05T09:57:19.646Z,13.10
2018-09-05T09:59:47.723Z,15.30
2018-09-05T10:02:21.226Z,12.80
2018-09-05T10:04:54.682Z,14.00
2018-09-05T10:07:28.025Z,13.37
2018-09-05T10:10:02.479Z,11.78
2018-09-05T10:12:35.943Z,11.37
2018-09-05T10:15:09.437Z,13.30
2018-09-05T10:17:38.512Z,16.60
2018-09-05T10:20:06.646Z,16.57
2018-09-05T10:22:34.744Z,14.93
2018-09-05T10:25:02.942Z,11.20
2018-09-05T10:27:31.031Z,11.27
2018-09-05T10:29:59.124Z,12.87
2018-09-05T10:32:27.705Z,16.73
2018-09-05T10:34:56.803Z,13.67
2018-09-05T10:37:25.114Z,12.33
2018-09-05T10:39:53.302Z,12.23
2018-09-05T10:42:21.413Z,12.70
2018-09-05T10:44:49.519Z,12.80
2018-09-05T10:47:17.612Z,14.00
2018-09-05T10:49:45.719Z,13.17
2018-09-05T10:52:13.822Z,14.33
2018-09-05T10:54:41.924Z,13.60
2018-09-05T10:57:10.055Z,13.60
2018-09-05T10:59:38.133Z,10.93
2018-09-05T11:02:06.398Z,14.00
2018-09-05T11:04:34.554Z,11.97
2018-09-05T11:07:02.640Z,11.10
2018-09-05T11:09:30.814Z,13.57
2018-09-05T11:11:58.994Z,13.13
2018-09-05T11:14:27.075Z,11.90
2018-09-05T11:16:55.216Z,12.10
2018-09-05T11:19:23.360Z,11.90
2018-09-05T11:21:51.467Z,11.80
2018-09-05T11:24:19.568Z,14.40
2018-09-05T11:26:47.671Z,10.87
2018-09-05T11:29:15.791Z,9.50
2018-09-05T11:31:43.951Z,12.30
2018-09-05T11:34:12.055Z,11.20
2018-09-05T11:36:40.272Z,11.10
2018-09-05T11:39:09.880Z,10.77
2018-09-05T11:41:37.966Z,12.13
2018-09-05T11:44:06.522Z,9.55
2018-09-05T11:46:34.673Z,9.53
2018-09-05T11:49:02.792Z,9.60
2018-09-05T11:51:30.959Z,9.58
2018-09-05T11:58:56.005Z,12.20
2018-09-05T12:01:24.850Z,10.83
2018-09-05T12:03:53.072Z,10.70
2018-09-05T12:06:21.176Z,8.80
2018-09-05T12:08:49.290Z,9.27
2018-09-05T12:11:17.389Z,10.30
2018-09-05T12:13:45.484Z,10.70
2018-09-05T12:16:13.591Z,8.97
2018-09-05T12:18:41.811Z,8.53
2018-09-05T12:21:09.910Z,9.03
2018-09-05T12:23:38.015Z,11.25
2018-09-05T12:26:06.114Z,9.13
2018-09-05T12:28:34.185Z,8.73
2018-09-05T12:31:02.267Z,9.88
2018-09-05T12:33:31.414Z,9.20
2018-09-05T12:35:59.523Z,8.05
2018-09-05T12:38:27.595Z,8.70
2018-09-05T12:40:55.695Z,9.13
2018-09-05T12:43:24.011Z,9.97
2018-09-05T12:45:52.096Z,7.90
2018-09-05T12:48:20.191Z,8.50
2018-09-05T12:50:48.291Z,9.50
2018-09-05T12:53:16.389Z,10.27
2018-09-05T12:55:44.514Z,9.88
2018-09-05T12:58:12.616Z,7.97
2018-09-05T13:00:40.713Z,8.00
2018-09-05T13:03:08.832Z,9.03
2018-09-05T13:05:37.079Z,7.83
2018-09-05T13:08:05.042Z,8.93
2018-09-05T13:10:33.510Z,8.10
2018-09-05T13:13:01.718Z,8.38
2018-09-05T13:15:29.816Z,9.17
2018-09-05T13:17:57.903Z,9.40
2018-09-05T13:20:26.121Z,8.47
2018-09-05T13:22:54.277Z,8.33
2018-09-05T13:25:22.306Z,8.43
2018-09-05T13:27:50.647Z,8.93
2018-09-05T13:30:18.733Z,10.53
2018-09-05T13:32:46.878Z,9.47
2018-09-05T13:35:14.955Z,9.80
2018-09-05T13:37:43.038Z,9.65
2018-09-05T13:40:11.198Z,9.57
2018-09-05T13:42:39.274Z,8.90
2018-09-05T13:45:07.453Z,9.83
2018-09-05T13:47:35.540Z,9.40
2018-09-05T13:50:03.797Z,9.73
2018-09-05T13:52:31.898Z,11.10
2018-09-05T13:55:00.020Z,8.60
2018-09-05T13:57:28.105Z,8.70
2018-09-05T13:59:56.175Z,8.05
2018-09-05T14:02:24.415Z,8.85
2018-09-05T14:04:52.441Z,9.10
2018-09-05T14:07:20.524Z,8.80
2018-09-05T14:09:48.595Z,8.43
2018-09-05T14:12:16.678Z,9.40
2018-09-05T14:14:44.763Z,7.20
2018-09-05T14:17:12.943Z,8.10
2018-09-05T14:19:41.026Z,8.40
2018-09-05T14:22:09.098Z,7.95
2018-09-05T14:24:37.271Z,8.83
2018-09-05T14:27:05.351Z,8.47
2018-09-05T14:29:33.429Z,8.23
2018-09-05T14:32:01.510Z,10.17
2018-09-05T14:34:29.596Z,7.37
2018-09-05T14:36:57.671Z,7.73
2018-09-05T14:39:25.890Z,7.60
2018-09-05T14:41:54.222Z,8.20
2018-09-05T14:44:22.328Z,8.33
2018-09-05T14:46:50.404Z,7.37
2018-09-05T14:49:18.468Z,7.93
2018-09-05T14:51:46.546Z,8.20
2018-09-05T14:54:14.623Z,8.10
2018-09-05T14:56:42.677Z,8.43
2018-09-05T14:59:10.776Z,7.30
2018-09-05T15:01:38.835Z,7.80
2018-09-05T15:04:06.907Z,6.30
2018-09-05T15:06:35.066Z,8.20
2018-09-05T15:09:03.156Z,7.53
2018-09-05T15:11:31.268Z,7.65
2018-09-05T15:13:59.419Z,7.70
2018-09-05T15:16:27.470Z,9.23
2018-09-05T15:18:55.554Z,8.47
2018-09-05T15:21:23.633Z,8.60
2018-09-05T15:23:51.797Z,8.17
2018-09-05T15:26:19.881Z,8.97
2018-09-05T15:28:48.003Z,7.43
2018-09-05T15:31:16.022Z,7.80
2018-09-05T15:33:44.091Z,7.93
2018-09-05T15:36:12.182Z,7.72
2018-09-05T15:38:40.258Z,7.67
2018-09-05T15:41:08.330Z,5.43
2018-09-05T15:43:36.399Z,7.83
2018-09-05T15:46:04.487Z,7.30
2018-09-05T15:48:32.557Z,7.80
2018-09-05T15:51:00.663Z,8.83
2018-09-05T15:53:28.735Z,6.17
2018-09-05T15:55:56.811Z,7.30
2018-09-05T15:58:24.948Z,7.80
2018-09-05T16:00:53.034Z,7.57
2018-09-05T16:03:21.140Z,7.93
2018-09-05T16:05:49.914Z,8.57
2018-09-05T16:08:17.941Z,6.53
2018-09-05T16:10:46.027Z,7.85
2018-09-05T16:13:14.104Z,7.70
2018-09-05T16:15:42.359Z,7.30
2018-09-05T16:18:10.265Z,6.87
2018-09-05T16:20:38.356Z,6.40
2018-09-05T16:23:06.765Z,7.10
2018-09-05T16:25:34.837Z,6.73
2018-09-05T16:28:02.907Z,7.50
2018-09-05T16:30:30.981Z,7.67
2018-09-05T16:32:59.130Z,8.20
2018-09-05T16:35:27.357Z,9.33
2018-09-05T16:37:55.351Z,7.90
2018-09-05T16:40:23.422Z,6.20
2018-09-05T16:42:51.492Z,10.67
2018-09-05T16:45:19.567Z,8.03
2018-09-05T16:47:47.739Z,7.57
2018-09-05T16:50:15.807Z,7.57
2018-09-05T16:52:43.886Z,9.90
2018-09-05T16:55:11.946Z,8.40
2018-09-05T16:57:40.983Z,8.15
2018-09-05T17:00:09.069Z,8.47
2018-09-05T17:02:37.142Z,8.53
2018-09-05T17:05:05.306Z,8.23
2018-09-05T17:07:33.427Z,8.13
2018-09-05T17:10:01.558Z,8.10
2018-09-05T17:12:29.766Z,7.50
2018-09-05T17:14:57.854Z,7.92
2018-09-05T17:17:26.049Z,7.90
2018-09-05T17:19:54.129Z,8.83
2018-09-05T17:22:22.639Z,7.42
2018-09-05T17:24:50.806Z,7.77
2018-09-05T17:27:18.978Z,8.38
2018-09-05T17:29:47.039Z,8.85
2018-09-05T17:32:15.137Z,7.78
2018-09-05T17:34:43.198Z,12.10
2018-09-05T17:37:11.292Z,11.60
2018-09-05T17:39:39.367Z,14.43
2018-09-05T17:42:07.459Z,11.25
2018-09-05T17:44:35.843Z,11.40
2018-09-05T17:47:03.934Z,10.10
2018-09-05T17:49:32.002Z,9.23
2018-09-05T17:52:00.099Z,10.20
2018-09-05T17:54:32.544Z,9.30
2018-09-05T17:57:00.774Z,9.03
2018-09-05T17:59:28.850Z,9.65
2018-09-05T18:02:02.124Z,8.73
2018-09-05T18:04:30.222Z,9.90
2018-09-05T18:06:58.365Z,9.10
2018-09-05T18:09:28.721Z,6.57
2018-09-05T18:11:56.800Z,9.73
2018-09-05T18:14:26.511Z,6.93
2018-09-05T18:16:55.537Z,7.87
2018-09-05T18:19:24.738Z,9.40
2018-09-05T18:21:52.839Z,8.60
2018-09-05T18:24:20.958Z,9.07
2018-09-05T18:26:49.026Z,8.60
2018-09-05T18:29:17.148Z,8.70
2018-09-05T18:31:45.203Z,8.13
2018-09-05T18:34:13.286Z,8.10
2018-09-05T18:36:41.411Z,8.80
2018-09-05T18:39:10.003Z,7.57
2018-09-05T18:41:38.476Z,8.75
2018-09-05T18:44:06.576Z,8.00
2018-09-05T18:46:34.662Z,6.60
2018-09-05T18:49:02.819Z,8.27
2018-09-05T18:51:30.974Z,7.07
2018-09-05T18:53:59.089Z,8.23
2018-09-05T18:56:27.762Z,9.47
2018-09-05T18:58:55.862Z,7.58
2018-09-05T19:01:23.970Z,8.73
2018-09-05T19:03:52.074Z,8.10
2018-09-05T19:06:20.155Z,7.63
2018-09-05T19:08:48.249Z,9.00
2018-09-05T19:11:16.731Z,7.95
2018-09-05T19:13:44.879Z,8.30
2018-09-05T19:16:12.979Z,9.20
2018-09-05T19:18:41.054Z,9.63
2018-09-05T19:21:09.174Z,8.00
2018-09-05T19:23:37.294Z,8.00
2018-09-05T19:26:05.636Z,9.80
2018-09-05T19:28:33.795Z,9.50
2018-09-05T19:31:01.892Z,10.27
2018-09-05T19:33:29.974Z,9.60
2018-09-05T19:35:58.087Z,9.90
2018-09-05T19:38:26.191Z,9.00
2018-09-05T19:40:54.290Z,8.27
2018-09-05T19:43:22.356Z,9.23
2018-09-05T19:45:50.456Z,11.00
2018-09-05T19:48:18.547Z,9.60
2018-09-05T19:50:46.651Z,9.40
2018-09-05T19:53:14.727Z,8.50
2018-09-05T19:55:42.996Z,7.97
2018-09-05T19:58:11.091Z,8.50
2018-09-05T20:00:39.201Z,7.93
2018-09-05T20:03:07.291Z,9.13
2018-09-05T20:05:35.392Z,7.90
2018-09-05T20:08:03.505Z,9.03
2018-09-05T20:10:31.613Z,10.33
2018-09-05T20:12:59.747Z,6.63
2018-09-05T20:15:27.861Z,7.93
2018-09-05T20:17:55.965Z,8.93
2018-09-05T20:20:24.130Z,9.60
2018-09-05T20:22:53.238Z,9.55
2018-09-05T20:25:21.413Z,8.87
2018-09-05T20:27:50.279Z,10.70
2018-09-05T20:30:18.366Z,10.37
2018-09-05T20:32:46.512Z,9.67
2018-09-05T20:35:14.618Z,9.33
2018-09-05T20:37:42.755Z,10.30
2018-09-05T20:40:10.876Z,10.73
2018-09-05T20:42:38.962Z,11.53
2018-09-05T20:45:07.117Z,11.40
2018-09-05T20:47:35.657Z,9.23
2018-09-05T20:50:03.982Z,10.58
2018-09-05T20:52:32.091Z,10.97
2018-09-05T20:55:00.209Z,10.17
2018-09-05T20:57:28.278Z,11.80
2018-09-05T20:59:56.471Z,11.47
2018-09-05T21:02:24.598Z,10.60
2018-09-05T21:04:52.676Z,10.90
2018-09-05T21:07:20.776Z,8.87
2018-09-05T21:09:48.884Z,8.87
2018-09-05T21:12:17.004Z,10.40
2018-09-05T21:14:45.131Z,12.50
2018-09-05T21:17:13.230Z,11.73
2018-09-05T21:19:41.324Z,10.25
2018-09-05T21:22:09.405Z,12.90
2018-09-05T21:24:37.508Z,10.43
2018-09-05T21:27:05.833Z,11.30
2018-09-05T21:29:33.951Z,11.60
2018-09-05T21:32:02.194Z,10.93
2018-09-05T21:34:30.274Z,12.67
2018-09-05T21:36:58.470Z,10.30
2018-09-05T21:39:26.568Z,11.10
2018-09-05T21:41:55.035Z,10.85
2018-09-05T21:44:23.108Z,12.17
2018-09-05T21:46:51.187Z,9.07
2018-09-05T21:49:19.276Z,12.23
2018-09-05T21:51:47.355Z,12.20
2018-09-05T21:54:15.463Z,11.27
2018-09-05T21:56:43.551Z,14.30
2018-09-05T22:02:39.899Z,12.67
2018-09-05T22:05:07.997Z,12.00
2018-09-05T22:07:36.101Z,11.47
2018-09-05T22:10:05.680Z,12.30
2018-09-05T22:12:33.760Z,11.30
2018-09-05T22:15:01.869Z,11.60
2018-09-05T22:17:29.979Z,11.50
2018-09-05T22:19:58.119Z,11.03
2018-09-05T22:22:26.214Z,12.57
2018-09-05T22:24:54.326Z,13.30
2018-09-05T22:27:22.411Z,11.40
2018-09-05T22:29:50.500Z,12.33
2018-09-05T22:32:18.644Z,11.13
2018-09-05T22:34:46.702Z,12.50
2018-09-05T22:37:14.894Z,13.33
2018-09-05T22:39:42.974Z,11.90
2018-09-05T22:42:13.091Z,13.60
2018-09-05T22:44:53.235Z,13.00
2018-09-05T22:47:32.774Z,12.93
2018-09-05T22:50:18.230Z,11.63
2018-09-05T22:53:08.890Z,10.13
2018-09-05T22:55:54.001Z,13.47
2018-09-05T23:00:09.228Z,11.93
2018-09-05T23:05:52.526Z,11.80
2018-09-05T23:08:37.444Z,12.60
2018-09-05T23:11:19.825Z,12.70
2018-09-05T23:14:01.750Z,13.20
2018-09-05T23:16:41.502Z,13.60
2018-09-05T23:19:34.845Z,12.73
2018-09-05T23:22:02.972Z,11.90
2018-09-05T23:24:31.067Z,12.63
2018-09-05T23:26:59.255Z,11.97
2018-09-05T23:29:27.984Z,9.55
2018-09-05T23:31:56.101Z,10.60
2018-09-05T23:34:24.202Z,10.53
2018-09-05T23:36:52.336Z,9.80
2018-09-05T23:39:20.482Z,11.23
2018-09-05T23:41:48.572Z,11.87
2018-09-05T23:44:16.684Z,11.27
2018-09-05T23:46:44.776Z,11.27
2018-09-05T23:49:12.912Z,10.67
2018-09-05T23:51:41.011Z,9.83
2018-09-05T23:54:09.316Z,10.90
2018-09-05T23:56:37.419Z,13.03
2018-09-05T23:59:06.460Z,13.43
